createdAt,value
2018-03-11T00:02:02.997Z,8.16
2018-03-11T00:04:30.843Z,8.18
2018-03-11T00:06:58.438Z,8.25
2018-03-11T00:09:25.962Z,8.30
2018-03-11T00:11:53.467Z,8.30
2018-03-11T00:14:20.989Z,8.36
2018-03-11T00:16:48.522Z,8.33
2018-03-11T00:19:16.162Z,8.27
2018-03-11T00:21:43.636Z,8.18
2018-03-11T00:24:11.140Z,8.11
2018-03-11T00:26:38.657Z,8.07
2018-03-11T00:29:06.163Z,8.04
2018-03-11T00:31:33.717Z,7.99
2018-03-11T00:34:01.269Z,7.96
2018-03-11T00:36:28.814Z,7.96
2018-03-11T00:38:56.390Z,7.95
2018-03-11T00:41:23.917Z,8.03
2018-03-11T00:43:51.464Z,8.02
2018-03-11T00:46:19.023Z,8.04
2018-03-11T00:48:46.627Z,8.06
2018-03-11T00:51:14.280Z,8.01
2018-03-11T00:53:41.816Z,7.94
2018-03-11T00:56:09.345Z,7.89
2018-03-11T00:58:36.904Z,7.88
2018-03-11T01:01:04.605Z,7.84
2018-03-11T01:03:32.144Z,7.97
2018-03-11T01:05:59.652Z,8.03
2018-03-11T01:08:27.194Z,8.14
2018-03-11T01:10:54.687Z,8.19
2018-03-11T01:13:22.321Z,8.16
2018-03-11T01:15:49.854Z,8.12
2018-03-11T01:18:17.463Z,8.07
2018-03-11T01:20:44.982Z,8.05
2018-03-11T01:23:12.489Z,7.95
2018-03-11T01:25:39.990Z,7.82
2018-03-11T01:28:07.491Z,7.77
2018-03-11T01:30:35.149Z,7.78
2018-03-11T01:33:02.843Z,7.82
2018-03-11T01:35:30.350Z,7.82
2018-03-11T01:37:57.855Z,7.79
2018-03-11T01:40:25.379Z,7.80
2018-03-11T01:42:52.945Z,7.90
2018-03-11T01:45:20.470Z,7.99
2018-03-11T01:47:48.014Z,7.99
2018-03-11T01:50:15.540Z,7.98
2018-03-11T01:52:54.819Z,7.98
2018-03-11T01:55:22.310Z,8.02
2018-03-11T01:57:49.958Z,8.09
2018-03-11T02:00:17.480Z,8.12
2018-03-11T02:02:45.088Z,8.11
2018-03-11T02:05:12.638Z,8.10
2018-03-11T02:07:40.157Z,8.04
2018-03-11T02:10:07.666Z,8.04
2018-03-11T02:12:35.185Z,7.96
2018-03-11T02:15:02.698Z,7.92
2018-03-11T02:17:30.325Z,7.85
2018-03-11T02:19:57.999Z,7.85
2018-03-11T02:22:25.502Z,7.72
2018-03-11T02:24:53.096Z,7.63
2018-03-11T02:27:20.664Z,7.55
2018-03-11T02:29:48.283Z,7.60
2018-03-11T02:32:15.799Z,7.56
2018-03-11T02:34:43.330Z,7.52
2018-03-11T02:37:10.850Z,7.46
2018-03-11T02:39:38.344Z,7.48
2018-03-11T02:42:06.046Z,7.48
2018-03-11T02:44:33.556Z,7.50
2018-03-11T02:47:01.090Z,7.50
2018-03-11T02:49:28.570Z,7.49
2018-03-11T02:51:56.224Z,7.46
2018-03-11T02:54:23.791Z,7.49
2018-03-11T02:56:51.292Z,7.56
2018-03-11T02:59:18.785Z,7.61
2018-03-11T03:01:46.284Z,7.64
2018-03-11T03:04:13.816Z,7.68
2018-03-11T03:06:41.341Z,7.69
2018-03-11T03:09:08.853Z,7.72
2018-03-11T03:11:36.358Z,7.63
2018-03-11T03:14:04.008Z,7.62
2018-03-11T03:16:31.779Z,7.60
2018-03-11T03:18:59.349Z,7.53
2018-03-11T03:21:26.856Z,7.52
2018-03-11T03:23:54.360Z,7.53
2018-03-11T03:26:21.858Z,7.39
2018-03-11T03:28:49.374Z,7.36
2018-03-11T03:31:16.885Z,7.22
2018-03-11T03:33:44.388Z,7.10
2018-03-11T03:36:11.918Z,7.00
2018-03-11T03:38:39.434Z,6.93
2018-03-11T03:41:06.951Z,6.88
2018-03-11T03:43:34.471Z,6.89
2018-03-11T03:46:01.965Z,6.87
2018-03-11T03:48:29.472Z,6.89
2018-03-11T03:50:56.948Z,6.96
2018-03-11T03:53:24.658Z,7.00
2018-03-11T03:55:52.173Z,7.11
2018-03-11T03:58:19.878Z,7.21
2018-03-11T04:00:47.518Z,7.31
2018-03-11T04:03:15.104Z,7.46
2018-03-11T04:05:42.634Z,7.59
2018-03-11T04:08:10.202Z,7.68
2018-03-11T04:10:37.740Z,7.69
2018-03-11T04:13:05.267Z,7.74
2018-03-11T04:15:32.805Z,7.71
2018-03-11T04:18:00.553Z,7.66
2018-03-11T04:20:28.101Z,7.56
2018-03-11T04:22:55.632Z,7.47
2018-03-11T04:25:23.115Z,7.37
2018-03-11T04:27:50.753Z,7.29
2018-03-11T04:30:18.278Z,7.22
2018-03-11T04:32:45.785Z,7.13
2018-03-11T04:35:13.338Z,7.07
2018-03-11T04:37:40.905Z,7.08
2018-03-11T04:40:08.422Z,6.92
2018-03-11T04:42:35.966Z,6.80
2018-03-11T04:45:03.585Z,6.76
2018-03-11T04:47:31.145Z,6.69
2018-03-11T04:49:58.675Z,6.57
2018-03-11T04:52:26.149Z,6.49
2018-03-11T04:54:53.722Z,6.41
2018-03-11T04:57:21.235Z,6.37
2018-03-11T04:59:48.752Z,6.33
2018-03-11T05:02:16.260Z,6.34
2018-03-11T05:04:43.752Z,6.27
2018-03-11T05:07:12.131Z,6.22
2018-03-11T05:09:39.628Z,6.20
2018-03-11T05:12:07.132Z,6.09
2018-03-11T05:14:34.657Z,6.08
2018-03-11T05:17:02.306Z,6.02
2018-03-11T05:19:30.229Z,6.05
2018-03-11T05:21:57.968Z,6.06
2018-03-11T05:24:25.468Z,6.16
2018-03-11T05:26:52.986Z,6.16
2018-03-11T05:29:20.514Z,6.12
2018-03-11T05:31:48.033Z,6.13
2018-03-11T05:34:15.557Z,6.13
2018-03-11T05:36:43.087Z,6.06
2018-03-11T05:39:10.602Z,6.07
2018-03-11T05:41:38.120Z,5.99
2018-03-11T05:44:05.649Z,5.89
2018-03-11T05:46:33.159Z,5.82
2018-03-11T05:49:00.690Z,5.76
2018-03-11T05:51:28.246Z,5.74
2018-03-11T05:53:55.780Z,5.69
2018-03-11T05:56:23.262Z,5.65
2018-03-11T05:58:50.761Z,5.64
2018-03-11T06:01:18.312Z,5.68
2018-03-11T06:03:45.850Z,5.82
2018-03-11T06:06:13.431Z,5.88
2018-03-11T06:08:40.927Z,5.96
2018-03-11T06:11:08.448Z,6.06
2018-03-11T06:13:35.955Z,6.13
2018-03-11T06:16:03.479Z,6.20
2018-03-11T06:18:30.976Z,6.29
2018-03-11T06:20:58.662Z,6.34
2018-03-11T06:23:26.212Z,6.47
2018-03-11T06:25:53.704Z,6.55
2018-03-11T06:28:21.223Z,6.64
2018-03-11T06:30:48.745Z,6.75
2018-03-11T06:33:16.259Z,6.82
2018-03-11T06:35:43.772Z,6.93
2018-03-11T06:38:11.311Z,7.00
2018-03-11T06:40:38.805Z,7.07
2018-03-11T06:43:06.331Z,7.20
2018-03-11T06:45:33.821Z,7.32
2018-03-11T06:48:01.389Z,7.49
2018-03-11T06:50:28.887Z,7.60
2018-03-11T06:52:56.457Z,7.64
2018-03-11T06:55:23.974Z,7.70
2018-03-11T06:57:51.454Z,7.78
2018-03-11T07:00:18.949Z,7.73
2018-03-11T07:02:46.481Z,7.81
2018-03-11T07:05:14.013Z,7.81
2018-03-11T07:07:41.532Z,7.83
2018-03-11T07:10:09.067Z,7.74
2018-03-11T07:12:36.560Z,7.81
2018-03-11T07:15:04.081Z,7.89
2018-03-11T07:17:31.578Z,7.98
2018-03-11T07:19:59.092Z,8.12
2018-03-11T07:22:26.598Z,8.23
2018-03-11T07:24:54.112Z,8.37
2018-03-11T07:27:21.624Z,8.67
2018-03-11T07:29:49.141Z,8.68
2018-03-11T07:32:16.661Z,9.01
2018-03-11T07:34:44.165Z,9.29
2018-03-11T07:37:11.677Z,9.59
2018-03-11T07:39:39.152Z,9.79
2018-03-11T07:42:06.718Z,10.13
2018-03-11T07:44:34.210Z,10.41
2018-03-11T07:47:01.712Z,10.40
2018-03-11T07:49:29.230Z,10.69
2018-03-11T07:51:56.796Z,10.65
2018-03-11T07:54:24.519Z,10.85
2018-03-11T07:56:52.241Z,11.08
2018-03-11T07:59:20.708Z,11.54
2018-03-11T08:01:48.208Z,11.65
2018-03-11T08:04:15.724Z,11.73
2018-03-11T08:06:43.246Z,11.75
2018-03-11T08:09:10.760Z,11.67
2018-03-11T08:11:38.257Z,11.59
2018-03-11T08:14:06.808Z,12.01
2018-03-11T08:16:34.320Z,12.14
2018-03-11T08:19:01.835Z,12.47
2018-03-11T08:21:29.351Z,12.77
2018-03-11T08:23:56.850Z,12.83
2018-03-11T08:32:19.796Z,12.97
2018-03-11T08:34:47.299Z,12.97
2018-03-11T08:37:14.816Z,12.94
2018-03-11T08:39:42.322Z,13.21
2018-03-11T08:42:09.892Z,13.34
2018-03-11T08:44:37.423Z,13.36
2018-03-11T08:47:04.953Z,13.47
2018-03-11T08:49:33.182Z,13.48
2018-03-11T08:52:00.797Z,13.66
2018-03-11T08:54:28.606Z,13.92
2018-03-11T08:56:56.126Z,13.84
2018-03-11T08:59:25.357Z,14.02
2018-03-11T09:01:54.071Z,13.99
2018-03-11T09:04:24.050Z,13.85
2018-03-11T09:06:51.740Z,13.78
2018-03-11T09:09:19.691Z,13.87
2018-03-11T09:11:47.185Z,13.89
2018-03-11T09:14:16.385Z,13.91
2018-03-11T09:16:44.528Z,14.11
2018-03-11T09:19:15.037Z,14.23
2018-03-11T09:21:43.260Z,14.38
2018-03-11T09:24:13.990Z,14.64
2018-03-11T09:26:47.543Z,14.88
2018-03-11T09:29:15.408Z,15.19
2018-03-11T09:31:42.938Z,15.24
2018-03-11T09:34:10.433Z,15.36
2018-03-11T09:36:38.123Z,15.54
2018-03-11T09:39:05.980Z,15.32
2018-03-11T09:41:33.907Z,15.42
2018-03-11T09:44:01.454Z,15.55
2018-03-11T09:46:29.033Z,15.39
2018-03-11T09:48:56.795Z,15.50
2018-03-11T09:51:25.547Z,15.76
2018-03-11T09:53:53.528Z,16.27
2018-03-11T09:56:21.042Z,16.55
2018-03-11T09:58:49.236Z,16.89
2018-03-11T10:01:16.812Z,17.47
2018-03-11T10:03:44.385Z,17.76
2018-03-11T10:06:11.937Z,17.86
2018-03-11T10:08:39.682Z,17.91
2018-03-11T10:11:07.399Z,18.39
2018-03-11T10:13:34.876Z,18.52
2018-03-11T10:16:02.400Z,19.09
2018-03-11T10:18:31.496Z,19.33
2018-03-11T10:50:51.291Z,18.41
2018-03-11T10:53:36.628Z,18.53
2018-03-11T11:05:12.168Z,18.79
2018-03-11T11:07:45.662Z,18.81
2018-03-11T11:10:50.742Z,18.96
2018-03-11T11:16:11.744Z,18.65
2018-03-11T11:25:05.964Z,18.36
2018-03-11T11:33:31.737Z,17.82
2018-03-11T11:36:00.178Z,17.95
2018-03-11T11:38:27.971Z,17.95
2018-03-11T11:40:55.581Z,18.01
2018-03-11T11:43:23.557Z,18.28
2018-03-11T11:45:51.315Z,18.61
2018-03-11T11:48:19.316Z,19.08
2018-03-11T11:50:48.048Z,19.38
2018-03-11T11:53:15.816Z,19.22
2018-03-11T11:55:43.385Z,19.39
2018-03-11T12:10:22.458Z,20.61
2018-03-11T12:12:50.001Z,21.01
2018-03-11T12:18:18.105Z,22.98
2018-03-11T12:20:48.829Z,24.25
2018-03-11T12:23:25.468Z,25.28
2018-03-11T12:25:53.014Z,25.30
2018-03-11T12:28:20.522Z,24.59
2018-03-11T12:30:48.033Z,24.40
2018-03-11T12:33:17.230Z,24.26
2018-03-11T12:35:44.953Z,23.27
2018-03-11T12:38:12.601Z,22.44
2018-03-11T12:40:41.459Z,22.08
2018-03-11T12:43:09.822Z,21.89
2018-03-11T12:45:37.303Z,20.59
2018-03-11T12:48:05.300Z,20.28
2018-03-11T12:50:32.880Z,19.99
2018-03-11T12:53:00.532Z,19.70
2018-03-11T12:55:28.098Z,19.47
2018-03-11T12:57:55.696Z,19.58
2018-03-11T13:00:23.156Z,19.76
2018-03-11T13:02:50.637Z,19.89
2018-03-11T13:05:18.140Z,20.18
2018-03-11T13:07:45.609Z,20.22
2018-03-11T13:10:13.072Z,20.23
2018-03-11T13:12:40.540Z,20.41
2018-03-11T13:15:08.039Z,20.29
2018-03-11T13:17:35.635Z,20.30
2018-03-11T13:23:09.996Z,19.68
2018-03-11T13:28:34.464Z,18.84
2018-03-11T13:31:06.475Z,18.80
2018-03-11T13:33:46.546Z,18.72
2018-03-11T13:36:14.025Z,18.77
2018-03-11T13:38:56.969Z,18.75
2018-03-11T13:41:35.801Z,18.73
2018-03-11T13:44:20.462Z,18.93
2018-03-11T13:47:06.945Z,18.76
2018-03-11T13:49:34.590Z,18.78
2018-03-11T13:52:13.858Z,18.49
2018-03-11T13:54:41.354Z,18.21
2018-03-11T14:00:24.202Z,18.31
2018-03-11T14:02:51.688Z,18.29
2018-03-11T14:05:19.179Z,18.29
2018-03-11T14:07:46.757Z,18.16
2018-03-11T14:10:14.297Z,18.20
2018-03-11T14:12:41.830Z,17.90
2018-03-11T14:15:09.347Z,17.92
2018-03-11T14:17:36.907Z,17.72
2018-03-11T14:20:04.414Z,17.58
2018-03-11T14:22:31.904Z,17.49
2018-03-11T14:24:59.440Z,17.24
2018-03-11T14:27:26.932Z,17.10
2018-03-11T14:29:54.433Z,17.14
2018-03-11T14:32:21.947Z,17.03
2018-03-11T14:34:49.447Z,16.72
2018-03-11T14:37:16.952Z,16.50
2018-03-11T14:39:44.472Z,16.58
2018-03-11T14:42:11.984Z,16.26
2018-03-11T14:44:40.207Z,16.28
2018-03-11T14:47:07.764Z,16.28
2018-03-11T14:49:35.362Z,16.19
2018-03-11T14:52:02.988Z,16.04
2018-03-11T14:54:31.651Z,15.99
2018-03-11T14:56:59.354Z,15.95
2018-03-11T14:59:26.892Z,15.70
2018-03-11T15:01:54.379Z,15.70
2018-03-11T15:04:21.888Z,15.59
2018-03-11T15:06:49.384Z,15.56
2018-03-11T15:09:16.868Z,15.54
2018-03-11T15:11:44.451Z,15.57
2018-03-11T15:14:11.955Z,15.53
2018-03-11T15:16:39.479Z,15.49
2018-03-11T15:19:06.976Z,15.28
2018-03-11T15:21:34.494Z,15.33
2018-03-11T15:24:01.999Z,15.31
2018-03-11T15:26:29.564Z,15.29
2018-03-11T15:28:57.076Z,15.28
2018-03-11T15:31:24.564Z,15.28
2018-03-11T15:33:52.077Z,15.31
2018-03-11T15:36:19.718Z,15.24
2018-03-11T15:38:47.203Z,15.33
2018-03-11T15:41:14.733Z,15.29
2018-03-11T15:43:42.226Z,15.24
2018-03-11T15:46:09.772Z,15.17
2018-03-11T15:48:37.327Z,15.18
2018-03-11T15:51:04.811Z,15.26
2018-03-11T15:53:32.305Z,15.24
2018-03-11T15:55:59.805Z,15.15
2018-03-11T15:58:27.404Z,15.07
2018-03-11T16:00:54.880Z,15.04
2018-03-11T16:03:22.384Z,14.98
2018-03-11T16:05:50.018Z,14.99
2018-03-11T16:08:32.130Z,15.00
2018-03-11T16:11:00.943Z,15.02
2018-03-11T16:13:28.471Z,14.92
2018-03-11T16:15:55.997Z,14.92
2018-03-11T16:18:23.621Z,14.87
2018-03-11T16:20:51.129Z,14.88
2018-03-11T16:23:18.669Z,14.93
2018-03-11T16:25:46.203Z,14.77
2018-03-11T16:28:13.742Z,14.72
2018-03-11T16:30:41.368Z,14.61
2018-03-11T16:33:09.020Z,14.51
2018-03-11T16:35:36.538Z,14.44
2018-03-11T16:38:04.490Z,14.36
2018-03-11T16:40:32.004Z,14.27
2018-03-11T16:43:01.952Z,14.20
2018-03-11T16:45:29.964Z,14.15
2018-03-11T16:48:00.269Z,14.08
2018-03-11T16:50:29.472Z,14.03
2018-03-11T16:53:00.135Z,13.97
2018-03-11T16:55:29.593Z,13.90
2018-03-11T16:57:58.034Z,13.85
2018-03-11T17:00:26.865Z,13.73
2018-03-11T17:02:55.300Z,13.59
2018-03-11T17:05:23.029Z,13.56
2018-03-11T17:07:50.781Z,13.51
2018-03-11T17:10:18.284Z,13.46
2018-03-11T17:12:46.030Z,13.40
2018-03-11T17:15:13.593Z,13.30
2018-03-11T17:17:41.370Z,13.27
2018-03-11T17:20:09.025Z,13.25
2018-03-11T17:22:36.586Z,13.24
2018-03-11T17:25:04.090Z,13.18
2018-03-11T17:27:31.634Z,13.19
2018-03-11T17:29:59.197Z,13.16
2018-03-11T17:32:26.885Z,13.10
2018-03-11T17:34:54.422Z,13.06
2018-03-11T17:37:21.922Z,12.99
2018-03-11T17:39:49.559Z,12.93
2018-03-11T17:42:17.065Z,12.98
2018-03-11T17:44:44.636Z,12.82
2018-03-11T17:47:12.123Z,12.74
2018-03-11T17:49:40.242Z,12.70
2018-03-11T17:52:07.763Z,12.73
2018-03-11T17:54:35.418Z,12.81
2018-03-11T17:57:04.720Z,12.74
2018-03-11T17:59:32.427Z,12.68
2018-03-11T18:02:00.044Z,12.63
2018-03-11T18:04:27.681Z,12.61
2018-03-11T18:06:56.248Z,12.58
2018-03-11T18:09:23.829Z,12.64
2018-03-11T18:11:51.458Z,12.54
2018-03-11T18:14:19.029Z,12.45
2018-03-11T18:16:46.601Z,12.42
2018-03-11T18:19:14.195Z,12.41
2018-03-11T18:21:43.433Z,12.32
2018-03-11T18:24:10.971Z,12.31
2018-03-11T18:26:41.134Z,12.28
2018-03-11T18:29:08.778Z,12.26
2018-03-11T18:31:36.503Z,12.23
2018-03-11T18:34:08.652Z,12.22
2018-03-11T18:36:39.532Z,12.17
2018-03-11T18:39:08.192Z,12.08
2018-03-11T18:41:43.335Z,12.08
2018-03-11T18:44:10.851Z,12.06
2018-03-11T18:46:38.380Z,12.01
2018-03-11T18:49:05.941Z,12.01
2018-03-11T18:51:33.505Z,11.95
2018-03-11T18:54:03.347Z,11.92
2018-03-11T18:56:30.884Z,11.88
2018-03-11T18:58:58.491Z,11.86
2018-03-11T19:01:27.202Z,11.86
2018-03-11T19:03:54.698Z,11.85
2018-03-11T19:06:22.210Z,11.81
2018-03-11T19:08:49.755Z,11.81
2018-03-11T19:11:17.353Z,11.78
2018-03-11T19:13:44.954Z,11.79
2018-03-11T19:16:12.451Z,11.78
2018-03-11T19:18:40.019Z,11.73
2018-03-11T19:21:09.206Z,11.72
2018-03-11T19:23:36.733Z,11.71
2018-03-11T19:26:04.236Z,11.81
2018-03-11T19:28:31.840Z,11.78
2018-03-11T19:30:59.371Z,11.75
2018-03-11T19:33:26.974Z,11.74
2018-03-11T19:35:54.601Z,11.68
2018-03-11T19:38:22.159Z,11.66
2018-03-11T19:40:49.625Z,11.61
2018-03-11T19:43:17.651Z,11.58
2018-03-11T19:45:45.240Z,11.53
2018-03-11T19:48:12.964Z,11.49
2018-03-11T19:50:48.398Z,11.47
2018-03-11T19:53:16.160Z,11.45
2018-03-11T19:55:43.790Z,11.29
2018-03-11T19:58:15.949Z,11.23
2018-03-11T20:00:43.776Z,11.26
2018-03-11T20:03:11.327Z,11.14
2018-03-11T20:05:40.300Z,11.14
2018-03-11T20:08:09.374Z,11.10
2018-03-11T20:10:36.893Z,11.03
2018-03-11T20:13:04.886Z,11.03
2018-03-11T20:15:32.939Z,11.01
2018-03-11T20:18:02.062Z,11.01
2018-03-11T20:20:29.650Z,11.00
2018-03-11T20:22:57.235Z,10.97
2018-03-11T20:25:25.333Z,11.02
2018-03-11T20:28:03.562Z,11.04
2018-03-11T20:30:31.560Z,10.99
2018-03-11T20:32:59.439Z,11.03
2018-03-11T20:35:29.836Z,10.99
2018-03-11T20:37:57.995Z,11.03
2018-03-11T20:40:25.739Z,11.02
2018-03-11T20:42:53.942Z,10.98
2018-03-11T20:45:21.517Z,11.00
2018-03-11T20:47:50.758Z,11.00
2018-03-11T20:50:31.995Z,10.99
2018-03-11T20:52:59.655Z,10.97
2018-03-11T20:55:27.206Z,11.01
2018-03-11T20:57:54.967Z,10.98
2018-03-11T21:03:13.748Z,10.98
2018-03-11T21:05:42.655Z,10.91
2018-03-11T21:08:12.928Z,10.92
2018-03-11T21:10:40.435Z,10.92
2018-03-11T21:13:21.184Z,10.90
2018-03-11T21:15:56.644Z,10.96
2018-03-11T21:18:24.308Z,10.90
2018-03-11T21:20:53.073Z,10.77
2018-03-11T21:23:28.627Z,10.69
2018-03-11T21:25:56.216Z,10.66
2018-03-11T21:28:23.737Z,10.67
2018-03-11T21:30:55.035Z,10.66
2018-03-11T21:33:25.353Z,10.68
2018-03-11T21:35:53.908Z,10.62
2018-03-11T21:41:01.199Z,10.61
2018-03-11T21:43:29.589Z,10.53
2018-03-11T21:45:57.606Z,10.63
2018-03-11T21:48:25.124Z,10.61
2018-03-11T21:50:52.669Z,10.62
2018-03-11T21:53:21.087Z,10.57
2018-03-11T21:55:48.596Z,10.61
2018-03-11T22:00:51.611Z,10.60
2018-03-11T22:03:19.221Z,10.57
2018-03-11T22:05:46.816Z,10.58
2018-03-11T22:08:14.471Z,10.55
2018-03-11T22:10:41.959Z,10.58
2018-03-11T22:13:09.472Z,10.59
2018-03-11T22:15:37.045Z,10.58
2018-03-11T22:18:04.832Z,10.61
2018-03-11T22:20:32.366Z,10.58
2018-03-11T22:22:59.871Z,10.56
2018-03-11T22:25:30.108Z,10.58
2018-03-11T22:28:06.941Z,10.58
2018-03-11T22:30:36.227Z,10.54
2018-03-11T22:33:03.731Z,10.59
2018-03-11T22:35:31.611Z,10.56
2018-03-11T22:37:59.639Z,10.52
2018-03-11T22:40:27.203Z,10.53
2018-03-11T22:42:57.169Z,10.53
2018-03-11T22:45:24.704Z,10.49
2018-03-11T22:47:52.381Z,10.46
2018-03-11T22:50:19.851Z,10.46
2018-03-11T22:52:47.507Z,10.46
2018-03-11T22:55:15.409Z,10.46
2018-03-11T22:57:45.760Z,10.42
2018-03-11T23:00:13.359Z,10.43
2018-03-11T23:02:40.924Z,10.45
2018-03-11T23:05:08.789Z,10.43
2018-03-11T23:07:36.308Z,10.35
2018-03-11T23:10:03.995Z,10.30
2018-03-11T23:12:32.075Z,10.31
2018-03-11T23:14:59.911Z,10.33
2018-03-11T23:17:27.438Z,10.34
2018-03-11T23:19:55.037Z,10.35
2018-03-11T23:22:22.547Z,10.38
2018-03-11T23:24:50.079Z,10.38
2018-03-11T23:27:17.869Z,10.41
2018-03-11T23:29:45.832Z,10.43
2018-03-11T23:32:13.349Z,10.39
2018-03-11T23:34:40.897Z,10.38
2018-03-11T23:37:08.970Z,10.40
2018-03-11T23:39:36.467Z,10.36
2018-03-11T23:42:04.741Z,10.38
2018-03-11T23:44:32.253Z,10.41
2018-03-11T23:46:59.938Z,10.41
2018-03-11T23:49:27.440Z,10.40
2018-03-11T23:51:55.024Z,10.44
2018-03-11T23:54:22.603Z,10.43
2018-03-11T23:56:50.112Z,10.39
2018-03-11T23:59:17.615Z,10.39
